Time;durP1;ratioP1;P1;durP2;ratioP2;P2;SDS_P1;SDS_P2;PMS_P1;PMS_P2;Temp;Humidity;BMP_temperature;BMP_pressure;BME280_temperature;BME280_humidity;BME280_pressure;Samples;Min_cycle;Max_cycle;Signal;HPM_P1;HPM_P2
2023/11/25 00:01:48;;;;;;;;;;;;;;;;;;4165916;28;19921;-58
2023/11/25 00:03:51;;;;;;;;;;;;;;;;;;4166677;28;19935;-58
2023/11/25 00:05:54;;;;;;;;;;;;;;;;;;4149072;28;19960;-59
2023/11/25 00:07:57;;;;;;;;;;;;;;;;;;4167156;28;19944;-59
2023/11/25 00:10:00;;;;;;;;;;;;;;;;;;4182912;28;19921;-59
2023/11/25 00:12:02;;;;;;;;;;;;;;;;;;4166737;28;19951;-58
2023/11/25 00:14:05;;;;;;;;;;;;;;;;;;4166221;28;19964;-58
2023/11/25 00:16:09;;;;;;;;;;;;;;;;;;4166322;28;20368;-58
2023/11/25 00:18:12;;;;;;;;;;;;;;;;;;4166018;28;20063;-58
2023/11/25 00:20:16;;;;;;;;;;;;;;;;;;4166319;28;20293;-58
2023/11/25 00:22:19;;;;;;;;;;;;;;;;;;4166125;28;19963;-58
2023/11/25 00:24:22;;;;;;;;;;;;;;;;;;4166289;28;20281;-58
2023/11/25 00:26:27;;;;;;;;;;;;;;;;;;4166485;28;19927;-59
2023/11/25 00:28:33;;;;;;;;;;;;;;;;;;4166225;28;20331;-58
2023/11/25 00:30:35;;;;;;;;;;;;;;;;;;4166069;28;19932;-58
2023/11/25 00:32:38;;;;;;;;;;;;;;;;;;4166136;28;19925;-58
2023/11/25 00:34:41;;;;;;;;;;;;;;;;;;4166191;28;19924;-58
2023/11/25 00:36:44;;;;;;;;;;;;;;;;;;4166158;28;19921;-58
2023/11/25 00:38:47;;;;;;;;;;;;;;;;;;4151070;28;19963;-58
2023/11/25 00:40:50;;;;;;;;;;;;;;;;;;4149430;28;19921;-58
2023/11/25 00:42:53;;;;;;;;;;;;;;;;;;4148984;28;19921;-58
2023/11/25 00:44:56;;;;;;;;;;;;;;;;;;4149380;28;20015;-58
2023/11/25 00:47:00;;;;;;;;;;;;;;;;;;4149599;28;20274;-58
2023/11/25 00:49:04;;;;;;;;;;;;;;;;;;4149736;28;19933;-58
2023/11/25 00:51:07;;;;;;;;;;;;;;;;;;4149402;28;20453;-57
2023/11/25 00:53:10;;;;;;;;;;;;;;;;;;4150528;28;19921;-58
2023/11/25 00:55:13;;;;;;;;;;;;;;;;;;4165855;28;19968;-58
2023/11/25 00:57:16;;;;;;;;;;;;;;;;;;4165579;28;19964;-58
2023/11/25 00:59:19;;;;;;;;;;;;;;;;;;4165558;28;19975;-58
2023/11/25 01:01:22;;;;;;;;;;;;;;;;;;4164829;28;19929;-58
2023/11/25 01:03:25;;;;;;;;;;;;;;;;;;4165515;28;19983;-58
2023/11/25 01:05:28;;;;;;;;;;;;;;;;;;4165601;28;20027;-58
2023/11/25 01:07:31;;;;;;;;;;;;;;;;;;4148124;28;20324;-59
2023/11/25 01:09:34;;;;;;;;;;;;;;;;;;4169477;28;19921;-58
2023/11/25 01:11:37;;;;;;;;;;;;;;;;;;4147801;28;19921;-58
2023/11/25 01:13:40;;;;;;;;;;;;;;;;;;4165470;28;19927;-58
2023/11/25 01:15:43;;;;;;;;;;;;;;;;;;4165446;28;19925;-58
2023/11/25 01:17:45;;;;;;;;;;;;;;;;;;4147963;28;19936;-59
2023/11/25 01:19:47;;;;;;;;;;;;;;;;;;4165540;28;19969;-58
2023/11/25 01:21:48;;;;;;;;;;;;;;;;;;4165205;28;19971;-58
2023/11/25 01:23:50;;;;;;;;;;;;;;;;;;4165170;28;19920;-58
2023/11/25 01:25:51;;;;;;;;;;;;;;;;;;4165364;28;20298;-58
2023/11/25 01:27:54;;;;;;;;;;;;;;;;;;4165583;28;19979;-59
2023/11/25 01:29:57;;;;;;;;;;;;;;;;;;4165443;28;19921;-58
2023/11/25 01:31:59;;;;;;;;;;;;;;;;;;4164819;28;19925;-58
2023/11/25 01:34:01;;;;;;;;;;;;;;;;;;4158269;28;19921;-58
2023/11/25 01:36:03;;;;;;;;;;;;;;;;;;4131045;28;19926;-58
2023/11/25 01:38:05;;;;;;;;;;;;;;;;;;4148917;28;19921;-58
2023/11/25 01:40:10;;;;;;;;;;;;;;;;;;4148674;28;20298;-58
2023/11/25 01:42:12;;;;;;;;;;;;;;;;;;4148522;28;19971;-58
2023/11/25 01:44:13;;;;;;;;;;;;;;;;;;4148729;28;19925;-58
2023/11/25 01:46:16;;;;;;;;;;;;;;;;;;4148659;28;19928;-58
2023/11/25 01:48:17;;;;;;;;;;;;;;;;;;4148479;28;19925;-58
2023/11/25 01:50:19;;;;;;;;;;;;;;;;;;4157099;28;20359;-57
2023/11/25 01:52:22;;;;;;;;;;;;;;;;;;4164923;28;19925;-58
2023/11/25 01:54:24;;;;;;;;;;;;;;;;;;4164575;28;19928;-58
2023/11/25 01:56:25;;;;;;;;;;;;;;;;;;4146949;28;19933;-58
2023/11/25 01:58:27;;;;;;;;;;;;;;;;;;4146198;28;20365;-58
2023/11/25 02:00:28;;;;;;;;;;;;;;;;;;4164751;28;19925;-58
2023/11/25 02:02:30;;;;;;;;;;;;;;;;;;4146867;28;19944;-58
2023/11/25 02:04:32;;;;;;;;;;;;;;;;;;4164900;28;20340;-58
2023/11/25 02:06:34;;;;;;;;;;;;;;;;;;4164424;28;19983;-58
2023/11/25 02:08:36;;;;;;;;;;;;;;;;;;4170715;28;19964;-58
2023/11/25 02:10:39;;;;;;;;;;;;;;;;;;4180914;28;19924;-58
2023/11/25 02:12:40;;;;;;;;;;;;;;;;;;4180922;28;20376;-58
2023/11/25 02:14:42;;;;;;;;;;;;;;;;;;4181337;28;19925;-58
2023/11/25 02:16:43;;;;;;;;;;;;;;;;;;4181182;28;19929;-58
2023/11/25 02:18:45;;;;;;;;;;;;;;;;;;4181181;28;19924;-58
2023/11/25 02:20:46;;;;;;;;;;;;;;;;;;4181118;28;19947;-58
2023/11/25 02:22:48;;;;;;;;;;;;;;;;;;4180900;28;19920;-58
2023/11/25 02:24:49;;;;;;;;;;;;;;;;;;4163433;28;19921;-59
2023/11/25 02:26:51;;;;;;;;;;;;;;;;;;4181091;28;19921;-58
2023/11/25 02:28:52;;;;;;;;;;;;;;;;;;4181425;28;19927;-58
2023/11/25 02:30:54;;;;;;;;;;;;;;;;;;4151290;28;20278;-57
2023/11/25 02:32:56;;;;;;;;;;;;;;;;;;4164545;28;19921;-58
2023/11/25 02:34:57;;;;;;;;;;;;;;;;;;4130419;28;20381;-58
2023/11/25 02:36:58;;;;;;;;;;;;;;;;;;4164491;28;20511;-58
2023/11/25 02:39:00;;;;;;;;;;;;;;;;;;4164363;28;19921;-58
2023/11/25 02:41:04;;;;;;;;;;;;;;;;;;4164538;28;19921;-58
2023/11/25 02:43:07;;;;;;;;;;;;;;;;;;4146960;28;20324;-59
2023/11/25 02:45:10;;;;;;;;;;;;;;;;;;4163300;28;20284;-58
2023/11/25 02:47:13;;;;;;;;;;;;;;;;;;4164152;28;19952;-59
2023/11/25 02:49:15;;;;;;;;;;;;;;;;;;4164396;28;19931;-60
2023/11/25 02:51:17;;;;;;;;;;;;;;;;;;4146474;28;19925;-60
2023/11/25 02:53:18;;;;;;;;;;;;;;;;;;4164374;28;19982;-60
2023/11/25 02:55:20;;;;;;;;;;;;;;;;;;4164289;28;20395;-60
2023/11/25 02:57:22;;;;;;;;;;;;;;;;;;4179445;28;20023;-60
2023/11/25 02:59:24;;;;;;;;;;;;;;;;;;4164347;28;19928;-60
2023/11/25 03:01:29;;;;;;;;;;;;;;;;;;4167777;28;19921;-60
2023/11/25 03:03:36;;;;;;;;;;;;;;;;;;4164333;28;20289;-60
2023/11/25 03:05:37;;;;;;;;;;;;;;;;;;4164483;28;19925;-59
2023/11/25 03:07:39;;;;;;;;;;;;;;;;;;4166486;28;19921;-60
2023/11/25 03:09:42;;;;;;;;;;;;;;;;;;4182228;28;19921;-60
2023/11/25 03:11:44;;;;;;;;;;;;;;;;;;4165631;28;19936;-60
2023/11/25 03:13:45;;;;;;;;;;;;;;;;;;4183867;28;20287;-60
2023/11/25 03:15:46;;;;;;;;;;;;;;;;;;4183665;28;20289;-60
2023/11/25 03:17:48;;;;;;;;;;;;;;;;;;4183895;28;19927;-60
2023/11/25 03:19:50;;;;;;;;;;;;;;;;;;4165783;28;19925;-59
2023/11/25 03:21:51;;;;;;;;;;;;;;;;;;4165815;28;19928;-60
2023/11/25 03:23:53;;;;;;;;;;;;;;;;;;4183560;28;20334;-60
2023/11/25 03:25:55;;;;;;;;;;;;;;;;;;4181935;28;19926;-60
2023/11/25 03:27:56;;;;;;;;;;;;;;;;;;4149197;28;19932;-60
2023/11/25 03:29:58;;;;;;;;;;;;;;;;;;4167060;28;19925;-62
2023/11/25 03:32:00;;;;;;;;;;;;;;;;;;4166724;28;20355;-61
2023/11/25 03:34:01;;;;;;;;;;;;;;;;;;4166870;28;19921;-61
2023/11/25 03:36:03;;;;;;;;;;;;;;;;;;4166975;28;19943;-62
2023/11/25 03:38:04;;;;;;;;;;;;;;;;;;4166967;28;19924;-61
2023/11/25 03:40:07;;;;;;;;;;;;;;;;;;4149369;28;19971;-61
2023/11/25 03:42:09;;;;;;;;;;;;;;;;;;4166829;28;19971;-61
2023/11/25 03:44:10;;;;;;;;;;;;;;;;;;4166624;28;19921;-61
2023/11/25 03:46:13;;;;;;;;;;;;;;;;;;4166812;28;20345;-61
2023/11/25 03:48:15;;;;;;;;;;;;;;;;;;4166644;28;19931;-62
2023/11/25 03:50:16;;;;;;;;;;;;;;;;;;4166783;28;19921;-61
2023/11/25 03:52:18;;;;;;;;;;;;;;;;;;4166689;28;20436;-61
2023/11/25 03:54:19;;;;;;;;;;;;;;;;;;4166641;28;19921;-61
2023/11/25 03:56:21;;;;;;;;;;;;;;;;;;4148978;28;19927;-61
2023/11/25 03:58:22;;;;;;;;;;;;;;;;;;4166843;28;19921;-61
2023/11/25 04:00:24;;;;;;;;;;;;;;;;;;4166502;28;19935;-61
2023/11/25 04:02:25;;;;;;;;;;;;;;;;;;4182657;28;19921;-61
2023/11/25 04:04:27;;;;;;;;;;;;;;;;;;4182962;28;20327;-61
2023/11/25 04:06:31;;;;;;;;;;;;;;;;;;4182983;28;20384;-62
2023/11/25 04:08:33;;;;;;;;;;;;;;;;;;4182668;28;19928;-61
2023/11/25 04:10:34;;;;;;;;;;;;;;;;;;4182630;28;19963;-61
2023/11/25 04:12:36;;;;;;;;;;;;;;;;;;4165308;28;19925;-61
2023/11/25 04:14:37;;;;;;;;;;;;;;;;;;4182824;28;19925;-61
2023/11/25 04:16:39;;;;;;;;;;;;;;;;;;4165170;28;19968;-61
2023/11/25 04:18:41;;;;;;;;;;;;;;;;;;4182735;28;19925;-61
2023/11/25 04:20:43;;;;;;;;;;;;;;;;;;4182593;28;19936;-61
2023/11/25 04:22:45;;;;;;;;;;;;;;;;;;4169835;28;20359;-61
2023/11/25 04:24:47;;;;;;;;;;;;;;;;;;4162095;28;19932;-62
2023/11/25 04:26:48;;;;;;;;;;;;;;;;;;4166227;28;19925;-61
2023/11/25 04:28:50;;;;;;;;;;;;;;;;;;4166224;28;19927;-62
2023/11/25 04:30:52;;;;;;;;;;;;;;;;;;4165852;28;20020;-61
2023/11/25 04:32:53;;;;;;;;;;;;;;;;;;4165902;28;19921;-61
2023/11/25 04:34:55;;;;;;;;;;;;;;;;;;4166039;28;19924;-62
2023/11/25 04:36:56;;;;;;;;;;;;;;;;;;4166071;28;19928;-61
2023/11/25 04:38:59;;;;;;;;;;;;;;;;;;4165874;28;20265;-61
2023/11/25 04:41:00;;;;;;;;;;;;;;;;;;4165794;28;19928;-61
2023/11/25 04:43:02;;;;;;;;;;;;;;;;;;4166078;28;19927;-61
2023/11/25 04:45:03;;;;;;;;;;;;;;;;;;4165813;28;20273;-61
2023/11/25 04:47:05;;;;;;;;;;;;;;;;;;4164803;28;19925;-61
2023/11/25 04:49:07;;;;;;;;;;;;;;;;;;4165861;28;19964;-60
2023/11/25 04:51:09;;;;;;;;;;;;;;;;;;4165893;28;19925;-62
2023/11/25 04:53:10;;;;;;;;;;;;;;;;;;4165504;28;20266;-61
2023/11/25 04:55:12;;;;;;;;;;;;;;;;;;4176683;28;19921;-61
2023/11/25 04:57:14;;;;;;;;;;;;;;;;;;4182513;28;19987;-61
2023/11/25 04:59:16;;;;;;;;;;;;;;;;;;4182093;28;19925;-61
2023/11/25 05:01:17;;;;;;;;;;;;;;;;;;4181529;28;19921;-61
2023/11/25 05:03:19;;;;;;;;;;;;;;;;;;4182028;28;19920;-61
2023/11/25 05:05:21;;;;;;;;;;;;;;;;;;4181882;28;19927;-61
2023/11/25 05:07:23;;;;;;;;;;;;;;;;;;4164227;28;20009;-62
2023/11/25 05:09:26;;;;;;;;;;;;;;;;;;4182112;28;19967;-60
2023/11/25 05:11:28;;;;;;;;;;;;;;;;;;4181989;28;20436;-59
2023/11/25 05:13:29;;;;;;;;;;;;;;;;;;4163966;28;20328;-59
2023/11/25 05:15:31;;;;;;;;;;;;;;;;;;4164189;28;20021;-60
2023/11/25 05:17:33;;;;;;;;;;;;;;;;;;4182127;28;20411;-59
2023/11/25 05:19:35;;;;;;;;;;;;;;;;;;4141786;28;19922;-59
2023/11/25 05:21:37;;;;;;;;;;;;;;;;;;4165275;28;19932;-60
2023/11/25 05:23:38;;;;;;;;;;;;;;;;;;4147878;28;19926;-59
2023/11/25 05:25:40;;;;;;;;;;;;;;;;;;4165253;28;19921;-59
2023/11/25 05:27:41;;;;;;;;;;;;;;;;;;4165351;28;20424;-60
2023/11/25 05:29:43;;;;;;;;;;;;;;;;;;4163430;28;19921;-60
2023/11/25 05:31:44;;;;;;;;;;;;;;;;;;4165017;28;19925;-59
2023/11/25 05:33:47;;;;;;;;;;;;;;;;;;4147469;28;20364;-60
2023/11/25 05:35:49;;;;;;;;;;;;;;;;;;4164987;28;19935;-60
2023/11/25 05:37:50;;;;;;;;;;;;;;;;;;4147320;28;19927;-59
2023/11/25 05:39:52;;;;;;;;;;;;;;;;;;4147684;28;20374;-60
2023/11/25 05:41:54;;;;;;;;;;;;;;;;;;4165048;28;19929;-62
2023/11/25 05:44:02;;;;;;;;;;;;;;;;;;4165085;28;19994;-61
2023/11/25 05:46:03;;;;;;;;;;;;;;;;;;4164858;28;20431;-61
2023/11/25 05:48:05;;;;;;;;;;;;;;;;;;4164955;28;19925;-61
2023/11/25 05:50:06;;;;;;;;;;;;;;;;;;4164636;28;19949;-61
2023/11/25 05:52:08;;;;;;;;;;;;;;;;;;4164805;28;19921;-62
2023/11/25 05:54:12;;;;;;;;;;;;;;;;;;4167427;28;19927;-61
2023/11/25 05:56:14;;;;;;;;;;;;;;;;;;4181406;28;19991;-61
2023/11/25 05:58:16;;;;;;;;;;;;;;;;;;4161421;28;19928;-61
2023/11/25 06:00:17;;;;;;;;;;;;;;;;;;4164602;28;20368;-61
2023/11/25 06:02:19;;;;;;;;;;;;;;;;;;4166246;28;19921;-61
2023/11/25 06:04:23;;;;;;;;;;;;;;;;;;4164711;28;20444;-62
2023/11/25 06:06:24;;;;;;;;;;;;;;;;;;4158263;28;19991;-61
2023/11/25 06:08:26;;;;;;;;;;;;;;;;;;4149209;28;19931;-62
2023/11/25 06:10:27;;;;;;;;;;;;;;;;;;4181106;28;19925;-61
2023/11/25 06:12:29;;;;;;;;;;;;;;;;;;4177180;28;20059;-61
2023/11/25 06:14:33;;;;;;;;;;;;;;;;;;4164395;28;19921;-61
2023/11/25 06:16:34;;;;;;;;;;;;;;;;;;4154692;28;20016;-61
2023/11/25 06:18:38;;;;;;;;;;;;;;;;;;4164556;28;19924;-61
2023/11/25 06:20:40;;;;;;;;;;;;;;;;;;4164775;28;19944;-59
2023/11/25 06:22:41;;;;;;;;;;;;;;;;;;4164746;28;19920;-60
2023/11/25 06:24:43;;;;;;;;;;;;;;;;;;4164761;28;19960;-59
2023/11/25 06:26:45;;;;;;;;;;;;;;;;;;4147029;28;20348;-65
2023/11/25 06:28:46;;;;;;;;;;;;;;;;;;4164635;28;19925;-66
2023/11/25 06:30:53;;;;;;;;;;;;;;;;;;4164509;28;19921;-65
2023/11/25 06:32:55;;;;;;;;;;;;;;;;;;4148276;28;19921;-65
2023/11/25 06:34:58;;;;;;;;;;;;;;;;;;4148286;28;20262;-64
2023/11/25 06:36:59;;;;;;;;;;;;;;;;;;4148426;28;20340;-64
2023/11/25 06:39:02;;;;;;;;;;;;;;;;;;4147988;28;19939;-64
2023/11/25 06:41:03;;;;;;;;;;;;;;;;;;4148451;28;20411;-66
2023/11/25 06:43:05;;;;;;;;;;;;;;;;;;4151855;28;19925;-65
2023/11/25 06:45:07;;;;;;;;;;;;;;;;;;4160758;28;19980;-64
2023/11/25 06:47:08;;;;;;;;;;;;;;;;;;4149970;28;19921;-64
2023/11/25 06:49:13;;;;;;;;;;;;;;;;;;4167779;28;20012;-64
2023/11/25 06:51:14;;;;;;;;;;;;;;;;;;4167788;28;20435;-64
2023/11/25 06:53:16;;;;;;;;;;;;;;;;;;4164987;28;19969;-64
2023/11/25 06:55:18;;;;;;;;;;;;;;;;;;4147299;28;19968;-64
2023/11/25 06:57:19;;;;;;;;;;;;;;;;;;4156915;28;19921;-65
2023/11/25 06:59:21;;;;;;;;;;;;;;;;;;4163535;28;20369;-64
2023/11/25 07:01:23;;;;;;;;;;;;;;;;;;4151453;28;19922;-65
2023/11/25 07:03:25;;;;;;;;;;;;;;;;;;4155770;28;20412;-65
2023/11/25 07:05:27;;;;;;;;;;;;;;;;;;4149815;28;19928;-65
2023/11/25 07:07:29;;;;;;;;;;;;;;;;;;4149699;28;19922;-64
2023/11/25 07:09:31;;;;;;;;;;;;;;;;;;4162998;28;19921;-64
2023/11/25 07:11:34;;;;;;;;;;;;;;;;;;4170080;28;19927;-64
2023/11/25 07:13:35;;;;;;;;;;;;;;;;;;4160784;28;20444;-65
2023/11/25 07:15:37;;;;;;;;;;;;;;;;;;4166210;28;19975;-65
2023/11/25 07:17:38;;;;;;;;;;;;;;;;;;4161115;28;19921;-65
2023/11/25 07:19:42;;;;;;;;;;;;;;;;;;4163866;28;20160;-67
2023/11/25 07:21:43;;;;;;;;;;;;;;;;;;4167098;28;19967;-64
2023/11/25 07:23:45;;;;;;;;;;;;;;;;;;4166456;28;19921;-65
2023/11/25 07:25:47;;;;;;;;;;;;;;;;;;4158446;28;19945;-64
2023/11/25 07:27:50;;;;;;;;;;;;;;;;;;4166983;28;19928;-65
2023/11/25 07:29:51;;;;;;;;;;;;;;;;;;4166954;28;19971;-64
2023/11/25 07:31:54;;;;;;;;;;;;;;;;;;4167002;28;19921;-64
2023/11/25 07:33:56;;;;;;;;;;;;;;;;;;4166266;28;20012;-66
2023/11/25 07:35:58;;;;;;;;;;;;;;;;;;4166688;28;19921;-65
2023/11/25 07:38:00;;;;;;;;;;;;;;;;;;4166995;28;19928;-64
2023/11/25 07:40:03;;;;;;;;;;;;;;;;;;4167096;28;19921;-64
2023/11/25 07:42:04;;;;;;;;;;;;;;;;;;4166757;28;19928;-70
2023/11/25 07:44:06;;;;;;;;;;;;;;;;;;4166830;28;20377;-70
2023/11/25 07:46:09;;;;;;;;;;;;;;;;;;4149027;28;20013;-71
2023/11/25 07:48:11;;;;;;;;;;;;;;;;;;4166872;28;19983;-71
2023/11/25 07:50:13;;;;;;;;;;;;;;;;;;4166815;28;19956;-70
2023/11/25 07:52:15;;;;;;;;;;;;;;;;;;4148760;28;19980;-70
2023/11/25 07:54:17;;;;;;;;;;;;;;;;;;4170123;28;19932;-70
2023/11/25 07:56:18;;;;;;;;;;;;;;;;;;4165344;28;19921;-70
2023/11/25 07:58:22;;;;;;;;;;;;;;;;;;4183009;28;19927;-70
2023/11/25 08:00:25;;;;;;;;;;;;;;;;;;4182905;28;19928;-69
2023/11/25 08:02:27;;;;;;;;;;;;;;;;;;4182715;28;20375;-71
2023/11/25 08:04:30;;;;;;;;;;;;;;;;;;4183135;28;20431;-71
2023/11/25 08:06:31;;;;;;;;;;;;;;;;;;4182832;28;19967;-71
2023/11/25 08:08:33;;;;;;;;;;;;;;;;;;4168095;28;20265;-70
2023/11/25 08:10:36;;;;;;;;;;;;;;;;;;4182675;28;19928;-71
2023/11/25 08:12:38;;;;;;;;;;;;;;;;;;4160166;28;20007;-70
2023/11/25 08:14:39;;;;;;;;;;;;;;;;;;4166287;28;19924;-71
2023/11/25 08:16:41;;;;;;;;;;;;;;;;;;4166354;28;19927;-71
2023/11/25 08:18:43;;;;;;;;;;;;;;;;;;4166085;28;19928;-71
2023/11/25 08:20:47;;;;;;;;;;;;;;;;;;4132426;28;19926;-71
2023/11/25 08:22:49;;;;;;;;;;;;;;;;;;4166373;28;19921;-72
2023/11/25 08:24:55;;;;;;;;;;;;;;;;;;4165897;28;20349;-71
2023/11/25 08:26:56;;;;;;;;;;;;;;;;;;4166107;28;20340;-71
2023/11/25 08:28:58;;;;;;;;;;;;;;;;;;4163564;28;19921;-70
2023/11/25 08:31:00;;;;;;;;;;;;;;;;;;4162923;28;19936;-69
2023/11/25 08:33:04;;;;;;;;;;;;;;;;;;4160054;28;19956;-70
2023/11/25 08:35:06;;;;;;;;;;;;;;;;;;4163069;28;20368;-70
2023/11/25 08:37:08;;;;;;;;;;;;;;;;;;4145595;28;19960;-72
2023/11/25 08:39:10;;;;;;;;;;;;;;;;;;4165080;28;19924;-70
2023/11/25 08:41:13;;;;;;;;;;;;;;;;;;4161901;28;19967;-70
2023/11/25 08:43:15;;;;;;;;;;;;;;;;;;4128596;28;19922;-70
2023/11/25 08:45:17;;;;;;;;;;;;;;;;;;4158400;28;19925;-70
2023/11/25 08:47:18;;;;;;;;;;;;;;;;;;4162738;28;20376;-69
2023/11/25 08:49:21;;;;;;;;;;;;;;;;;;4158422;28;19928;-70
2023/11/25 08:51:24;;;;;;;;;;;;;;;;;;4154430;28;19921;-66
2023/11/25 08:53:25;;;;;;;;;;;;;;;;;;4165441;28;19987;-66
2023/11/25 08:55:27;;;;;;;;;;;;;;;;;;4178681;28;19924;-66
2023/11/25 08:57:30;;;;;;;;;;;;;;;;;;4182570;28;19921;-66
2023/11/25 08:59:33;;;;;;;;;;;;;;;;;;4164346;28;19967;-66
2023/11/25 09:01:35;;;;;;;;;;;;;;;;;;4168895;28;19921;-68
2023/11/25 09:03:37;;;;;;;;;;;;;;;;;;4159107;28;19931;-67
2023/11/25 09:05:40;;;;;;;;;;;;;;;;;;4163980;28;20396;-67
2023/11/25 09:07:43;;;;;;;;;;;;;;;;;;4145708;28;19928;-65
2023/11/25 09:09:49;;;;;;;;;;;;;;;;;;4162853;28;19921;-67
2023/11/25 09:11:51;;;;;;;;;;;;;;;;;;4161436;28;19956;-67
2023/11/25 09:13:54;;;;;;;;;;;;;;;;;;4162931;28;20361;-65
2023/11/25 09:15:57;;;;;;;;;;;;;;;;;;4165157;28;19925;-65
2023/11/25 09:18:01;;;;;;;;;;;;;;;;;;4165082;28;20368;-66
2023/11/25 09:20:04;;;;;;;;;;;;;;;;;;4162672;28;19971;-67
2023/11/25 09:22:05;;;;;;;;;;;;;;;;;;4160558;28;19944;-65
2023/11/25 09:24:07;;;;;;;;;;;;;;;;;;4147001;28;20294;-65
2023/11/25 09:26:09;;;;;;;;;;;;;;;;;;4165149;28;20427;-66
2023/11/25 09:28:12;;;;;;;;;;;;;;;;;;4165302;28;19972;-66
2023/11/25 09:30:14;;;;;;;;;;;;;;;;;;4147731;28;19932;-66
2023/11/25 09:32:16;;;;;;;;;;;;;;;;;;4165059;28;19927;-66
2023/11/25 09:34:17;;;;;;;;;;;;;;;;;;4165227;28;19925;-67
2023/11/25 09:36:21;;;;;;;;;;;;;;;;;;4158072;28;19921;-66
2023/11/25 09:38:22;;;;;;;;;;;;;;;;;;4164528;28;19921;-65
2023/11/25 09:40:24;;;;;;;;;;;;;;;;;;4164508;28;19921;-66
2023/11/25 09:42:25;;;;;;;;;;;;;;;;;;4164367;28;19925;-65
2023/11/25 09:44:27;;;;;;;;;;;;;;;;;;4142367;28;20437;-66
2023/11/25 09:46:29;;;;;;;;;;;;;;;;;;4160121;28;19921;-65
2023/11/25 09:48:31;;;;;;;;;;;;;;;;;;4162466;28;19932;-65
2023/11/25 09:50:34;;;;;;;;;;;;;;;;;;4144119;28;19921;-66
2023/11/25 09:52:36;;;;;;;;;;;;;;;;;;4160046;28;19971;-65
2023/11/25 09:54:37;;;;;;;;;;;;;;;;;;4171003;28;20384;-66
2023/11/25 09:56:39;;;;;;;;;;;;;;;;;;4144169;28;19964;-66
2023/11/25 09:58:41;;;;;;;;;;;;;;;;;;4156738;28;19925;-64
2023/11/25 10:00:42;;;;;;;;;;;;;;;;;;4166753;28;19992;-66
2023/11/25 10:02:44;;;;;;;;;;;;;;;;;;4164543;28;19968;-66
2023/11/25 10:04:45;;;;;;;;;;;;;;;;;;4163714;28;20007;-66
2023/11/25 10:06:47;;;;;;;;;;;;;;;;;;4163927;28;19932;-66
2023/11/25 10:08:49;;;;;;;;;;;;;;;;;;4145462;28;19929;-65
2023/11/25 10:10:53;;;;;;;;;;;;;;;;;;4163946;28;20454;-66
2023/11/25 10:12:55;;;;;;;;;;;;;;;;;;4161745;28;19925;-70
2023/11/25 10:14:59;;;;;;;;;;;;;;;;;;4162809;28;20308;-72
2023/11/25 10:17:00;;;;;;;;;;;;;;;;;;4163747;28;19971;-70
2023/11/25 10:19:02;;;;;;;;;;;;;;;;;;4160951;28;19925;-70
2023/11/25 10:21:06;;;;;;;;;;;;;;;;;;4140150;28;19945;-71
2023/11/25 10:23:08;;;;;;;;;;;;;;;;;;4162071;28;19968;-71
2023/11/25 10:25:10;;;;;;;;;;;;;;;;;;4147059;28;20025;-70
2023/11/25 10:27:12;;;;;;;;;;;;;;;;;;4162138;28;19921;-72
2023/11/25 10:29:13;;;;;;;;;;;;;;;;;;4144754;28;19925;-71
2023/11/25 10:31:15;;;;;;;;;;;;;;;;;;4164138;28;19944;-69
2023/11/25 10:33:16;;;;;;;;;;;;;;;;;;4162879;28;20266;-71
2023/11/25 10:35:18;;;;;;;;;;;;;;;;;;4157361;28;19921;-70
2023/11/25 10:37:20;;;;;;;;;;;;;;;;;;4161638;28;19968;-70
2023/11/25 10:39:23;;;;;;;;;;;;;;;;;;4144182;28;19930;-72
2023/11/25 10:41:25;;;;;;;;;;;;;;;;;;4161056;28;19967;-71
2023/11/25 10:43:27;;;;;;;;;;;;;;;;;;4154254;28;19979;-72
2023/11/25 10:45:29;;;;;;;;;;;;;;;;;;4157698;28;19926;-72
2023/11/25 10:47:31;;;;;;;;;;;;;;;;;;4157105;28;19921;-71
2023/11/25 10:49:35;;;;;;;;;;;;;;;;;;4139110;28;19928;-71
2023/11/25 10:51:37;;;;;;;;;;;;;;;;;;4131167;28;20329;-72
2023/11/25 10:53:39;;;;;;;;;;;;;;;;;;4161667;28;19921;-71
2023/11/25 10:55:42;;;;;;;;;;;;;;;;;;4167818;28;19971;-71
2023/11/25 10:57:44;;;;;;;;;;;;;;;;;;4162820;28;19921;-70
2023/11/25 10:59:45;;;;;;;;;;;;;;;;;;4144981;28;19921;-70
2023/11/25 11:01:50;;;;;;;;;;;;;;;;;;4173507;28;19999;-71
2023/11/25 11:03:53;;;;;;;;;;;;;;;;;;4158701;28;19927;-70
2023/11/25 11:06:01;;;;;;;;;;;;;;;;;;4149958;28;19929;-70
2023/11/25 11:08:02;;;;;;;;;;;;;;;;;;4165141;28;19924;-70
2023/11/25 11:10:05;;;;;;;;;;;;;;;;;;4167358;28;19956;-70
2023/11/25 11:12:06;;;;;;;;;;;;;;;;;;4162437;28;19920;-71
2023/11/25 11:14:08;;;;;;;;;;;;;;;;;;4145510;28;19983;-70
2023/11/25 11:16:10;;;;;;;;;;;;;;;;;;4173150;28;19931;-70
2023/11/25 11:18:13;;;;;;;;;;;;;;;;;;4157181;28;19928;-70
2023/11/25 11:20:15;;;;;;;;;;;;;;;;;;4163483;28;19925;-69
2023/11/25 11:22:18;;;;;;;;;;;;;;;;;;4162934;28;20332;-72
2023/11/25 11:24:19;;;;;;;;;;;;;;;;;;4145272;28;19927;-71
2023/11/25 11:26:21;;;;;;;;;;;;;;;;;;4157175;28;19921;-70
2023/11/25 11:28:22;;;;;;;;;;;;;;;;;;4164978;28;20274;-71
2023/11/25 11:30:24;;;;;;;;;;;;;;;;;;4147028;28;19925;-70
2023/11/25 11:32:26;;;;;;;;;;;;;;;;;;4166935;28;20016;-70
2023/11/25 11:34:27;;;;;;;;;;;;;;;;;;4165368;28;20011;-70
2023/11/25 11:36:32;;;;;;;;;;;;;;;;;;4166930;28;19927;-71
2023/11/25 11:38:34;;;;;;;;;;;;;;;;;;4162798;28;19926;-71
2023/11/25 11:40:36;;;;;;;;;;;;;;;;;;4142734;28;19932;-71
2023/11/25 11:42:39;;;;;;;;;;;;;;;;;;4142620;28;19929;-70
2023/11/25 11:44:41;;;;;;;;;;;;;;;;;;4154576;28;19925;-72
2023/11/25 11:46:43;;;;;;;;;;;;;;;;;;4159064;28;19921;-70
2023/11/25 11:48:45;;;;;;;;;;;;;;;;;;4160325;28;19925;-70
2023/11/25 11:50:46;;;;;;;;;;;;;;;;;;4166382;28;19921;-72
2023/11/25 11:52:49;;;;;;;;;;;;;;;;;;4162101;28;20290;-72
2023/11/25 11:54:51;;;;;;;;;;;;;;;;;;4145270;28;20176;-71
2023/11/25 11:56:52;;;;;;;;;;;;;;;;;;4143469;28;19928;-71
2023/11/25 11:58:54;;;;;;;;;;;;;;;;;;4160726;28;19920;-71
2023/11/25 12:00:56;;;;;;;;;;;;;;;;;;4165981;28;20008;-71
2023/11/25 12:02:58;;;;;;;;;;;;;;;;;;4166428;28;19971;-71
2023/11/25 12:04:59;;;;;;;;;;;;;;;;;;4166944;28;19928;-71
2023/11/25 12:07:01;;;;;;;;;;;;;;;;;;4165461;28;19921;-71
2023/11/25 12:09:03;;;;;;;;;;;;;;;;;;4162693;28;19921;-71
2023/11/25 12:11:05;;;;;;;;;;;;;;;;;;4161883;28;20308;-72
2023/11/25 12:13:08;;;;;;;;;;;;;;;;;;4148557;28;20023;-71
2023/11/25 12:15:10;;;;;;;;;;;;;;;;;;4149603;28;20357;-72
2023/11/25 12:17:12;;;;;;;;;;;;;;;;;;4164368;28;19925;-71
2023/11/25 12:19:14;;;;;;;;;;;;;;;;;;4166049;28;19947;-71
2023/11/25 12:21:15;;;;;;;;;;;;;;;;;;4147960;28;20003;-72
2023/11/25 12:23:19;;;;;;;;;;;;;;;;;;4160348;28;19928;-72
2023/11/25 12:25:20;;;;;;;;;;;;;;;;;;4164944;28;19921;-70
2023/11/25 12:27:23;;;;;;;;;;;;;;;;;;4132180;28;19926;-71
2023/11/25 12:29:25;;;;;;;;;;;;;;;;;;4149720;28;19925;-71
2023/11/25 12:31:26;;;;;;;;;;;;;;;;;;4149980;28;19925;-71
2023/11/25 12:33:29;;;;;;;;;;;;;;;;;;4132401;28;19925;-71
2023/11/25 12:35:30;;;;;;;;;;;;;;;;;;4139839;28;19991;-72
2023/11/25 12:37:34;;;;;;;;;;;;;;;;;;4160629;28;20377;-71
2023/11/25 12:39:35;;;;;;;;;;;;;;;;;;4147809;28;19976;-72
2023/11/25 12:41:37;;;;;;;;;;;;;;;;;;4161824;28;19944;-71
2023/11/25 12:43:39;;;;;;;;;;;;;;;;;;4164465;28;19921;-72
2023/11/25 12:45:40;;;;;;;;;;;;;;;;;;4147686;28;19921;-72
2023/11/25 12:47:44;;;;;;;;;;;;;;;;;;4166076;28;19952;-72
2023/11/25 12:49:47;;;;;;;;;;;;;;;;;;4165833;28;19921;-72
2023/11/25 12:51:50;;;;;;;;;;;;;;;;;;4153428;28;20039;-73
2023/11/25 12:53:51;;;;;;;;;;;;;;;;;;4149246;28;20267;-71
2023/11/25 12:55:53;;;;;;;;;;;;;;;;;;4149279;28;19948;-71
2023/11/25 12:57:55;;;;;;;;;;;;;;;;;;4149240;28;20370;-69
2023/11/25 12:59:59;;;;;;;;;;;;;;;;;;4147178;28;20352;-71
2023/11/25 13:02:00;;;;;;;;;;;;;;;;;;4161057;28;19925;-71
2023/11/25 13:04:03;;;;;;;;;;;;;;;;;;4131853;28;19972;-71
2023/11/25 13:06:05;;;;;;;;;;;;;;;;;;4164763;28;19943;-71
2023/11/25 13:08:06;;;;;;;;;;;;;;;;;;4167350;28;19921;-72
2023/11/25 13:10:08;;;;;;;;;;;;;;;;;;4163164;28;19971;-70
2023/11/25 13:12:15;;;;;;;;;;;;;;;;;;4178382;28;19970;-71
2023/11/25 13:14:17;;;;;;;;;;;;;;;;;;4147479;28;19921;-72
2023/11/25 13:16:19;;;;;;;;;;;;;;;;;;4147904;28;19925;-71
2023/11/25 13:18:21;;;;;;;;;;;;;;;;;;4147820;28;19927;-68
2023/11/25 13:20:22;;;;;;;;;;;;;;;;;;4165198;28;19928;-73
2023/11/25 13:22:24;;;;;;;;;;;;;;;;;;4158911;28;19925;-71
2023/11/25 13:24:26;;;;;;;;;;;;;;;;;;4151133;28;19927;-71
2023/11/25 13:26:28;;;;;;;;;;;;;;;;;;4165372;28;19928;-70
2023/11/25 13:28:29;;;;;;;;;;;;;;;;;;4165158;28;19967;-72
2023/11/25 13:30:32;;;;;;;;;;;;;;;;;;4147238;28;20332;-71
2023/11/25 13:32:34;;;;;;;;;;;;;;;;;;4128525;28;20319;-71
2023/11/25 13:34:36;;;;;;;;;;;;;;;;;;4165340;28;19928;-71
2023/11/25 13:36:38;;;;;;;;;;;;;;;;;;4165023;28;19960;-71
2023/11/25 13:38:40;;;;;;;;;;;;;;;;;;4147664;28;19984;-70
2023/11/25 13:40:42;;;;;;;;;;;;;;;;;;4147603;28;19925;-66
2023/11/25 13:42:44;;;;;;;;;;;;;;;;;;4165261;28;19928;-67
2023/11/25 13:44:46;;;;;;;;;;;;;;;;;;4165090;28;19921;-66
2023/11/25 13:46:48;;;;;;;;;;;;;;;;;;4147269;28;19921;-66
2023/11/25 13:48:50;;;;;;;;;;;;;;;;;;4131404;28;19921;-65
2023/11/25 13:50:52;;;;;;;;;;;;;;;;;;4138828;28;19921;-66
2023/11/25 13:52:54;;;;;;;;;;;;;;;;;;4161559;28;19920;-66
2023/11/25 13:54:55;;;;;;;;;;;;;;;;;;4173409;28;19928;-65